sensor_id;sensor_type;location;lat;lon;timestamp;temperature;humidity
44277;DHT22;29973;43.742;1.236;2024-03-23T00:55:43;14.30;99.90
44277;DHT22;29973;43.742;1.236;2024-03-23T00:58:09;14.40;99.90
44277;DHT22;29973;43.742;1.236;2024-03-23T01:00:35;14.40;99.90
44277;DHT22;29973;43.742;1.236;2024-03-23T01:03:01;14.30;99.90
44277;DHT22;29973;43.742;1.236;2024-03-23T01:05:26;14.30;99.90
44277;DHT22;29973;43.742;1.236;2024-03-23T01:07:52;14.30;99.90
44277;DHT22;29973;43.742;1.236;2024-03-23T01:10:18;14.30;99.90
44277;DHT22;29973;43.742;1.236;2024-03-23T01:12:44;14.30;99.90
44277;DHT22;29973;43.742;1.236;2024-03-23T01:15:09;14.30;99.90
44277;DHT22;29973;43.742;1.236;2024-03-23T01:17:35;14.30;99.90
44277;DHT22;29973;43.742;1.236;2024-03-23T01:20:01;14.30;99.90
44277;DHT22;29973;43.742;1.236;2024-03-23T01:22:28;14.20;99.90
44277;DHT22;29973;43.742;1.236;2024-03-23T01:24:54;14.20;99.90
44277;DHT22;29973;43.742;1.236;2024-03-23T01:27:19;14.10;99.90
44277;DHT22;29973;43.742;1.236;2024-03-23T01:29:45;14.10;99.90
44277;DHT22;29973;43.742;1.236;2024-03-23T01:32:11;14.10;99.90
44277;DHT22;29973;43.742;1.236;2024-03-23T01:34:36;14.10;99.90
44277;DHT22;29973;43.742;1.236;2024-03-23T01:37:02;14.10;99.90
44277;DHT22;29973;43.742;1.236;2024-03-23T01:39:28;14.00;99.90
44277;DHT22;29973;43.742;1.236;2024-03-23T01:41:53;14.00;99.90
44277;DHT22;29973;43.742;1.236;2024-03-23T01:44:19;14.00;99.90
44277;DHT22;29973;43.742;1.236;2024-03-23T01:46:45;13.90;99.90
44277;DHT22;29973;43.742;1.236;2024-03-23T01:49:11;13.90;99.90
44277;DHT22;29973;43.742;1.236;2024-03-23T01:51:38;13.80;99.90
44277;DHT22;29973;43.742;1.236;2024-03-23T01:54:04;13.80;99.90
44277;DHT22;29973;43.742;1.236;2024-03-23T01:56:34;13.80;99.90
44277;DHT22;29973;43.742;1.236;2024-03-23T01:59:06;13.70;99.90
44277;DHT22;29973;43.742;1.236;2024-03-23T02:01:32;13.60;99.90
44277;DHT22;29973;43.742;1.236;2024-03-23T02:03:58;13.60;99.90
44277;DHT22;29973;43.742;1.236;2024-03-23T02:06:24;13.60;99.90
44277;DHT22;29973;43.742;1.236;2024-03-23T02:08:51;13.50;99.90
44277;DHT22;29973;43.742;1.236;2024-03-23T02:11:16;13.50;99.90
44277;DHT22;29973;43.742;1.236;2024-03-23T02:13:42;13.40;99.90
44277;DHT22;29973;43.742;1.236;2024-03-23T02:16:08;13.30;99.90
44277;DHT22;29973;43.742;1.236;2024-03-23T02:18:34;13.20;99.90
44277;DHT22;29973;43.742;1.236;2024-03-23T02:21:00;13.20;99.90
44277;DHT22;29973;43.742;1.236;2024-03-23T02:23:26;13.10;99.90
44277;DHT22;29973;43.742;1.236;2024-03-23T02:25:51;13.00;99.90
44277;DHT22;29973;43.742;1.236;2024-03-23T02:30:46;12.90;99.90
44277;DHT22;29973;43.742;1.236;2024-03-23T02:33:12;12.90;99.90
44277;DHT22;29973;43.742;1.236;2024-03-23T02:35:37;12.70;99.90
44277;DHT22;29973;43.742;1.236;2024-03-23T02:38:03;12.60;99.90
44277;DHT22;29973;43.742;1.236;2024-03-23T02:40:29;12.60;99.90
44277;DHT22;29973;43.742;1.236;2024-03-23T02:42:56;12.50;99.90
44277;DHT22;29973;43.742;1.236;2024-03-23T02:45:22;12.50;99.90
44277;DHT22;29973;43.742;1.236;2024-03-23T02:47:48;12.30;99.90
44277;DHT22;29973;43.742;1.236;2024-03-23T02:50:18;12.30;99.90
44277;DHT22;29973;43.742;1.236;2024-03-23T02:52:44;12.20;99.90
44277;DHT22;29973;43.742;1.236;2024-03-23T02:55:10;12.10;99.90
44277;DHT22;29973;43.742;1.236;2024-03-23T02:57:35;12.00;99.90
44277;DHT22;29973;43.742;1.236;2024-03-23T03:00:01;11.90;99.90
44277;DHT22;29973;43.742;1.236;2024-03-23T03:02:27;11.60;99.90
44277;DHT22;29973;43.742;1.236;2024-03-23T03:04:53;11.60;99.90
44277;DHT22;29973;43.742;1.236;2024-03-23T03:07:19;11.50;99.90
44277;DHT22;29973;43.742;1.236;2024-03-23T03:09:45;11.50;99.90
44277;DHT22;29973;43.742;1.236;2024-03-23T03:12:11;11.40;99.90
44277;DHT22;29973;43.742;1.236;2024-03-23T03:14:37;11.40;99.90
44277;DHT22;29973;43.742;1.236;2024-03-23T03:39:11;10.80;99.90
44277;DHT22;29973;43.742;1.236;2024-03-23T03:45:32;10.60;99.90
44277;DHT22;29973;43.742;1.236;2024-03-23T03:48:28;10.70;99.90
44277;DHT22;29973;43.742;1.236;2024-03-23T08:08:03;10.10;99.90
44277;DHT22;29973;43.742;1.236;2024-03-23T08:13:49;10.00;99.90
44277;DHT22;29973;43.742;1.236;2024-03-23T08:16:28;9.90;99.90
44277;DHT22;29973;43.742;1.236;2024-03-23T08:19:42;9.80;99.90
44277;DHT22;29973;43.742;1.236;2024-03-23T08:22:01;9.70;99.90
44277;DHT22;29973;43.742;1.236;2024-03-23T08:24:27;9.80;99.90
44277;DHT22;29973;43.742;1.236;2024-03-23T08:26:57;9.80;99.90
44277;DHT22;29973;43.742;1.236;2024-03-23T08:29:23;10.00;99.90
44277;DHT22;29973;43.742;1.236;2024-03-23T08:32:01;10.20;99.90
44277;DHT22;29973;43.742;1.236;2024-03-23T08:38:29;10.70;99.90
44277;DHT22;29973;43.742;1.236;2024-03-23T08:41:11;11.40;99.90
44277;DHT22;29973;43.742;1.236;2024-03-23T08:43:59;12.00;99.90
44277;DHT22;29973;43.742;1.236;2024-03-23T08:46:25;12.20;99.90
44277;DHT22;29973;43.742;1.236;2024-03-23T08:49:25;11.70;99.80
44277;DHT22;29973;43.742;1.236;2024-03-23T08:52:22;11.80;99.90
44277;DHT22;29973;43.742;1.236;2024-03-23T08:55:15;12.30;97.80
44277;DHT22;29973;43.742;1.236;2024-03-23T08:57:52;12.40;98.50
44277;DHT22;29973;43.742;1.236;2024-03-23T09:00:18;12.20;97.00
44277;DHT22;29973;43.742;1.236;2024-03-23T09:02:47;11.70;94.90
44277;DHT22;29973;43.742;1.236;2024-03-23T09:39:45;13.70;91.70
44277;DHT22;29973;43.742;1.236;2024-03-23T09:42:22;13.30;91.60
44277;DHT22;29973;43.742;1.236;2024-03-23T09:44:51;12.80;93.30
44277;DHT22;29973;43.742;1.236;2024-03-23T09:47:17;12.80;91.60
44277;DHT22;29973;43.742;1.236;2024-03-23T09:49:44;13.00;91.60
44277;DHT22;29973;43.742;1.236;2024-03-23T09:52:26;13.10;86.80
44277;DHT22;29973;43.742;1.236;2024-03-23T09:55:04;13.30;90.40
44277;DHT22;29973;43.742;1.236;2024-03-23T09:57:37;13.30;86.60
44277;DHT22;29973;43.742;1.236;2024-03-23T10:00:16;13.60;89.80
44277;DHT22;29973;43.742;1.236;2024-03-23T10:02:45;13.80;89.00
44277;DHT22;29973;43.742;1.236;2024-03-23T10:05:32;13.90;88.80
44277;DHT22;29973;43.742;1.236;2024-03-23T10:10:45;14.20;86.70
44277;DHT22;29973;43.742;1.236;2024-03-23T10:13:37;13.90;84.90
44277;DHT22;29973;43.742;1.236;2024-03-23T10:16:24;14.10;86.90
44277;DHT22;29973;43.742;1.236;2024-03-23T10:18:53;14.60;83.70
44277;DHT22;29973;43.742;1.236;2024-03-23T10:21:19;14.70;81.90
44277;DHT22;29973;43.742;1.236;2024-03-23T10:23:45;13.70;78.30
44277;DHT22;29973;43.742;1.236;2024-03-23T10:26:22;13.60;83.30
44277;DHT22;29973;43.742;1.236;2024-03-23T10:29:08;14.00;78.20
44277;DHT22;29973;43.742;1.236;2024-03-23T10:31:37;13.90;76.50
44277;DHT22;29973;43.742;1.236;2024-03-23T10:34:08;14.50;74.30
44277;DHT22;29973;43.742;1.236;2024-03-23T10:36:46;15.50;71.70
44277;DHT22;29973;43.742;1.236;2024-03-23T10:39:18;16.10;69.00
44277;DHT22;29973;43.742;1.236;2024-03-23T10:41:49;17.80;63.90
44277;DHT22;29973;43.742;1.236;2024-03-23T10:44:24;18.00;60.50
44277;DHT22;29973;43.742;1.236;2024-03-23T10:47:03;17.70;58.50
44277;DHT22;29973;43.742;1.236;2024-03-23T10:49:36;17.90;57.30
44277;DHT22;29973;43.742;1.236;2024-03-23T10:52:06;19.30;55.30
44277;DHT22;29973;43.742;1.236;2024-03-23T10:54:33;19.00;49.80
44277;DHT22;29973;43.742;1.236;2024-03-23T10:57:40;18.60;49.10
44277;DHT22;29973;43.742;1.236;2024-03-23T11:00:08;19.30;47.80
44277;DHT22;29973;43.742;1.236;2024-03-23T11:02:34;19.90;48.20
44277;DHT22;29973;43.742;1.236;2024-03-23T11:05:00;19.40;48.40
44277;DHT22;29973;43.742;1.236;2024-03-23T11:07:53;19.50;49.30
44277;DHT22;29973;43.742;1.236;2024-03-23T11:10:34;19.60;45.60
44277;DHT22;29973;43.742;1.236;2024-03-23T11:20:32;20.80;44.40
44277;DHT22;29973;43.742;1.236;2024-03-23T11:22:58;21.10;37.80
44277;DHT22;29973;43.742;1.236;2024-03-23T11:25:27;20.30;40.90
44277;DHT22;29973;43.742;1.236;2024-03-23T11:27:58;19.20;48.80
44277;DHT22;29973;43.742;1.236;2024-03-23T11:30:34;19.80;40.30
44277;DHT22;29973;43.742;1.236;2024-03-23T11:33:04;19.90;39.90
44277;DHT22;29973;43.742;1.236;2024-03-23T11:35:32;18.20;39.00
44277;DHT22;29973;43.742;1.236;2024-03-23T11:38:18;20.10;39.30
44277;DHT22;29973;43.742;1.236;2024-03-23T11:40:53;19.80;37.10
44277;DHT22;29973;43.742;1.236;2024-03-23T11:43:20;19.80;38.00
44277;DHT22;29973;43.742;1.236;2024-03-23T11:45:49;20.20;36.30
44277;DHT22;29973;43.742;1.236;2024-03-23T11:48:20;19.70;41.70
44277;DHT22;29973;43.742;1.236;2024-03-23T11:50:48;19.90;36.70
44277;DHT22;29973;43.742;1.236;2024-03-23T11:53:18;18.20;40.90
44277;DHT22;29973;43.742;1.236;2024-03-23T11:55:55;18.20;43.00
44277;DHT22;29973;43.742;1.236;2024-03-23T11:58:25;19.30;39.10
44277;DHT22;29973;43.742;1.236;2024-03-23T12:00:59;20.20;38.30
44277;DHT22;29973;43.742;1.236;2024-03-23T12:03:26;21.40;38.20
44277;DHT22;29973;43.742;1.236;2024-03-23T12:05:55;21.30;40.00
44277;DHT22;29973;43.742;1.236;2024-03-23T12:08:29;20.50;36.40
44277;DHT22;29973;43.742;1.236;2024-03-23T12:11:12;19.80;40.70
44277;DHT22;29973;43.742;1.236;2024-03-23T12:13:39;20.30;36.80
44277;DHT22;29973;43.742;1.236;2024-03-23T12:16:10;19.50;37.50
44277;DHT22;29973;43.742;1.236;2024-03-23T12:18:41;20.70;40.30
44277;DHT22;29973;43.742;1.236;2024-03-23T12:21:10;21.30;36.60
44277;DHT22;29973;43.742;1.236;2024-03-23T12:23:36;20.80;36.60
44277;DHT22;29973;43.742;1.236;2024-03-23T12:26:02;21.30;36.70
44277;DHT22;29973;43.742;1.236;2024-03-23T12:28:28;22.10;36.30
44277;DHT22;29973;43.742;1.236;2024-03-23T12:30:54;20.90;37.50
44277;DHT22;29973;43.742;1.236;2024-03-23T12:33:20;22.80;39.60
44277;DHT22;29973;43.742;1.236;2024-03-23T12:35:49;23.80;35.10
44277;DHT22;29973;43.742;1.236;2024-03-23T12:38:15;23.30;34.70
44277;DHT22;29973;43.742;1.236;2024-03-23T12:40:41;22.00;35.90
44277;DHT22;29973;43.742;1.236;2024-03-23T12:43:07;20.70;39.20
44277;DHT22;29973;43.742;1.236;2024-03-23T12:45:33;20.40;39.10
44277;DHT22;29973;43.742;1.236;2024-03-23T12:47:59;20.00;44.10
44277;DHT22;29973;43.742;1.236;2024-03-23T12:50:24;19.80;38.80
44277;DHT22;29973;43.742;1.236;2024-03-23T12:52:50;18.80;40.10
44277;DHT22;29973;43.742;1.236;2024-03-23T12:55:16;20.20;37.30
44277;DHT22;29973;43.742;1.236;2024-03-23T12:57:42;22.10;40.90
44277;DHT22;29973;43.742;1.236;2024-03-23T13:00:08;20.80;37.90
44277;DHT22;29973;43.742;1.236;2024-03-23T13:02:38;22.10;34.40
44277;DHT22;29973;43.742;1.236;2024-03-23T13:05:04;22.10;39.10
44277;DHT22;29973;43.742;1.236;2024-03-23T13:07:30;22.70;34.40
44277;DHT22;29973;43.742;1.236;2024-03-23T13:09:56;22.60;34.20
44277;DHT22;29973;43.742;1.236;2024-03-23T13:12:23;23.50;33.60
44277;DHT22;29973;43.742;1.236;2024-03-23T13:14:48;23.80;30.60
44277;DHT22;29973;43.742;1.236;2024-03-23T13:17:14;22.20;36.70
44277;DHT22;29973;43.742;1.236;2024-03-23T13:19:40;22.00;37.00
44277;DHT22;29973;43.742;1.236;2024-03-23T13:22:06;22.70;35.40
44277;DHT22;29973;43.742;1.236;2024-03-23T13:24:32;22.20;38.50
44277;DHT22;29973;43.742;1.236;2024-03-23T13:26:58;23.20;35.70
44277;DHT22;29973;43.742;1.236;2024-03-23T13:29:24;20.80;39.70
44277;DHT22;29973;43.742;1.236;2024-03-23T13:31:51;20.90;39.30
44277;DHT22;29973;43.742;1.236;2024-03-23T13:34:17;23.50;34.60
44277;DHT22;29973;43.742;1.236;2024-03-23T13:36:44;22.20;35.70
44277;DHT22;29973;43.742;1.236;2024-03-23T13:39:11;23.20;36.70
44277;DHT22;29973;43.742;1.236;2024-03-23T13:41:41;21.20;39.40
44277;DHT22;29973;43.742;1.236;2024-03-23T13:44:08;20.70;40.60
44277;DHT22;29973;43.742;1.236;2024-03-23T13:46:34;21.60;36.80
44277;DHT22;29973;43.742;1.236;2024-03-23T13:49:00;20.60;37.10
44277;DHT22;29973;43.742;1.236;2024-03-23T13:51:28;23.40;35.10
44277;DHT22;29973;43.742;1.236;2024-03-23T13:53:54;20.50;35.20
44277;DHT22;29973;43.742;1.236;2024-03-23T13:56:20;22.00;36.90
44277;DHT22;29973;43.742;1.236;2024-03-23T13:58:47;23.80;35.40
44277;DHT22;29973;43.742;1.236;2024-03-23T14:01:16;23.00;34.00
44277;DHT22;29973;43.742;1.236;2024-03-23T14:03:43;20.50;38.50
44277;DHT22;29973;43.742;1.236;2024-03-23T14:06:09;22.90;37.90
44277;DHT22;29973;43.742;1.236;2024-03-23T14:08:36;23.20;33.30
44277;DHT22;29973;43.742;1.236;2024-03-23T14:11:05;22.20;35.60
44277;DHT22;29973;43.742;1.236;2024-03-23T14:13:31;22.60;35.80
44277;DHT22;29973;43.742;1.236;2024-03-23T14:15:57;21.60;33.60
44277;DHT22;29973;43.742;1.236;2024-03-23T14:18:24;23.00;34.00
44277;DHT22;29973;43.742;1.236;2024-03-23T14:20:52;23.40;35.90
44277;DHT22;29973;43.742;1.236;2024-03-23T14:23:18;21.00;33.20
44277;DHT22;29973;43.742;1.236;2024-03-23T14:25:44;22.40;38.50
44277;DHT22;29973;43.742;1.236;2024-03-23T14:28:10;23.70;35.20
44277;DHT22;29973;43.742;1.236;2024-03-23T14:30:42;23.20;38.30
44277;DHT22;29973;43.742;1.236;2024-03-23T14:33:08;22.80;34.30
44277;DHT22;29973;43.742;1.236;2024-03-23T14:35:34;21.80;38.30
44277;DHT22;29973;43.742;1.236;2024-03-23T14:38:00;22.70;34.50
44277;DHT22;29973;43.742;1.236;2024-03-23T14:40:26;23.10;38.20
44277;DHT22;29973;43.742;1.236;2024-03-23T14:42:55;23.80;33.80
44277;DHT22;29973;43.742;1.236;2024-03-23T14:45:21;22.10;39.10
44277;DHT22;29973;43.742;1.236;2024-03-23T14:47:47;21.10;36.00
44277;DHT22;29973;43.742;1.236;2024-03-23T14:50:13;20.80;37.70
44277;DHT22;29973;43.742;1.236;2024-03-23T14:52:45;20.90;33.90
44277;DHT22;29973;43.742;1.236;2024-03-23T14:55:12;20.80;38.30
44277;DHT22;29973;43.742;1.236;2024-03-23T14:57:38;23.30;36.40
44277;DHT22;29973;43.742;1.236;2024-03-23T15:00:08;23.70;37.40
44277;DHT22;29973;43.742;1.236;2024-03-23T15:02:39;21.50;34.60
44277;DHT22;29973;43.742;1.236;2024-03-23T15:05:05;24.00;34.00
44277;DHT22;29973;43.742;1.236;2024-03-23T15:07:34;22.50;37.00
44277;DHT22;29973;43.742;1.236;2024-03-23T15:10:00;23.00;34.20
44277;DHT22;29973;43.742;1.236;2024-03-23T15:12:26;23.90;38.30
44277;DHT22;29973;43.742;1.236;2024-03-23T15:14:51;21.40;38.30
44277;DHT22;29973;43.742;1.236;2024-03-23T15:17:18;23.30;35.30
44277;DHT22;29973;43.742;1.236;2024-03-23T15:19:44;21.70;34.20
44277;DHT22;29973;43.742;1.236;2024-03-23T15:22:10;20.70;38.10
44277;DHT22;29973;43.742;1.236;2024-03-23T15:24:36;22.40;36.90
44277;DHT22;29973;43.742;1.236;2024-03-23T15:27:05;22.90;35.60
44277;DHT22;29973;43.742;1.236;2024-03-23T15:29:32;22.80;35.70
44277;DHT22;29973;43.742;1.236;2024-03-23T15:31:58;22.50;37.00
44277;DHT22;29973;43.742;1.236;2024-03-23T15:34:24;24.80;33.60
44277;DHT22;29973;43.742;1.236;2024-03-23T15:36:50;23.00;34.70
44277;DHT22;29973;43.742;1.236;2024-03-23T15:39:17;22.70;33.90
44277;DHT22;29973;43.742;1.236;2024-03-23T15:41:46;23.80;34.50
44277;DHT22;29973;43.742;1.236;2024-03-23T15:44:12;23.70;33.80
44277;DHT22;29973;43.742;1.236;2024-03-23T15:46:38;24.80;33.80
44277;DHT22;29973;43.742;1.236;2024-03-23T15:49:03;21.30;35.20
44277;DHT22;29973;43.742;1.236;2024-03-23T15:51:30;21.90;36.90
44277;DHT22;29973;43.742;1.236;2024-03-23T15:53:59;21.90;35.50
44277;DHT22;29973;43.742;1.236;2024-03-23T15:56:25;23.30;34.70
44277;DHT22;29973;43.742;1.236;2024-03-23T15:58:51;22.30;33.90
44277;DHT22;29973;43.742;1.236;2024-03-23T16:01:16;22.50;35.10
44277;DHT22;29973;43.742;1.236;2024-03-23T16:03:42;21.20;37.00
44277;DHT22;29973;43.742;1.236;2024-03-23T16:06:08;21.80;36.20
44277;DHT22;29973;43.742;1.236;2024-03-23T16:08:34;21.80;36.90
44277;DHT22;29973;43.742;1.236;2024-03-23T16:11:07;22.50;35.70
44277;DHT22;29973;43.742;1.236;2024-03-23T16:13:34;22.50;37.60
44277;DHT22;29973;43.742;1.236;2024-03-23T16:16:01;22.90;35.40
44277;DHT22;29973;43.742;1.236;2024-03-23T16:18:37;24.40;34.20
44277;DHT22;29973;43.742;1.236;2024-03-23T16:21:06;21.80;35.90
44277;DHT22;29973;43.742;1.236;2024-03-23T16:23:36;20.70;39.30
44277;DHT22;29973;43.742;1.236;2024-03-23T16:26:07;20.30;39.30
44277;DHT22;29973;43.742;1.236;2024-03-23T16:28:34;19.30;40.90
44277;DHT22;29973;43.742;1.236;2024-03-23T16:31:08;20.80;38.70
44277;DHT22;29973;43.742;1.236;2024-03-23T16:33:35;21.80;38.20
44277;DHT22;29973;43.742;1.236;2024-03-23T16:36:11;19.30;42.40
44277;DHT22;29973;43.742;1.236;2024-03-23T16:38:40;19.80;42.10
44277;DHT22;29973;43.742;1.236;2024-03-23T16:41:10;21.50;37.60
44277;DHT22;29973;43.742;1.236;2024-03-23T16:43:39;21.00;39.80
44277;DHT22;29973;43.742;1.236;2024-03-23T16:46:09;21.10;37.30
44277;DHT22;29973;43.742;1.236;2024-03-23T16:48:40;19.90;40.30
44277;DHT22;29973;43.742;1.236;2024-03-23T16:51:07;19.20;42.30
44277;DHT22;29973;43.742;1.236;2024-03-23T16:53:34;19.30;42.70
44277;DHT22;29973;43.742;1.236;2024-03-23T16:58:32;19.90;40.20
44277;DHT22;29973;43.742;1.236;2024-03-23T17:01:09;18.30;44.30
44277;DHT22;29973;43.742;1.236;2024-03-23T17:03:37;18.20;43.70
44277;DHT22;29973;43.742;1.236;2024-03-23T17:06:06;17.00;47.30
44277;DHT22;29973;43.742;1.236;2024-03-23T17:08:33;16.40;48.40
44277;DHT22;29973;43.742;1.236;2024-03-23T17:11:02;16.20;50.30
44277;DHT22;29973;43.742;1.236;2024-03-23T17:13:31;16.20;49.80
44277;DHT22;29973;43.742;1.236;2024-03-23T17:15:57;15.80;50.90
44277;DHT22;29973;43.742;1.236;2024-03-23T17:18:23;14.80;52.80
44277;DHT22;29973;43.742;1.236;2024-03-23T17:20:49;14.80;54.70
44277;DHT22;29973;43.742;1.236;2024-03-23T17:23:25;14.60;55.40
44277;DHT22;29973;43.742;1.236;2024-03-23T17:25:51;14.50;55.00
44277;DHT22;29973;43.742;1.236;2024-03-23T17:28:17;14.30;55.90
44277;DHT22;29973;43.742;1.236;2024-03-23T17:30:44;14.20;57.10
44277;DHT22;29973;43.742;1.236;2024-03-23T17:33:10;14.10;56.70
44277;DHT22;29973;43.742;1.236;2024-03-23T17:35:36;13.90;57.30
44277;DHT22;29973;43.742;1.236;2024-03-23T17:38:02;13.80;59.00
44277;DHT22;29973;43.742;1.236;2024-03-23T17:40:29;13.70;58.20
44277;DHT22;29973;43.742;1.236;2024-03-23T17:42:55;13.60;59.10
44277;DHT22;29973;43.742;1.236;2024-03-23T17:45:23;13.30;60.50
44277;DHT22;29973;43.742;1.236;2024-03-23T17:47:49;13.20;61.50
44277;DHT22;29973;43.742;1.236;2024-03-23T17:50:17;13.10;62.20
44277;DHT22;29973;43.742;1.236;2024-03-23T17:52:44;13.00;63.80
44277;DHT22;29973;43.742;1.236;2024-03-23T17:55:10;12.80;64.70
44277;DHT22;29973;43.742;1.236;2024-03-23T17:57:36;12.60;65.50
44277;DHT22;29973;43.742;1.236;2024-03-23T18:00:02;12.30;68.30
44277;DHT22;29973;43.742;1.236;2024-03-23T18:02:28;12.40;67.10
44277;DHT22;29973;43.742;1.236;2024-03-23T18:04:53;12.10;68.20
44277;DHT22;29973;43.742;1.236;2024-03-23T18:07:19;12.00;70.30
44277;DHT22;29973;43.742;1.236;2024-03-23T18:09:45;11.70;70.20
44277;DHT22;29973;43.742;1.236;2024-03-23T18:12:11;11.60;70.80
44277;DHT22;29973;43.742;1.236;2024-03-23T18:14:37;11.40;75.90
44277;DHT22;29973;43.742;1.236;2024-03-23T18:17:03;11.10;76.80
44277;DHT22;29973;43.742;1.236;2024-03-23T18:19:29;10.70;80.50
44277;DHT22;29973;43.742;1.236;2024-03-23T18:21:55;10.50;82.30
44277;DHT22;29973;43.742;1.236;2024-03-23T18:24:21;10.40;84.20
44277;DHT22;29973;43.742;1.236;2024-03-23T18:26:48;10.20;87.20
44277;DHT22;29973;43.742;1.236;2024-03-23T18:29:14;10.10;87.60
44277;DHT22;29973;43.742;1.236;2024-03-23T18:31:41;10.00;90.60
44277;DHT22;29973;43.742;1.236;2024-03-23T18:34:07;9.90;91.10
44277;DHT22;29973;43.742;1.236;2024-03-23T18:36:33;9.70;91.40
44277;DHT22;29973;43.742;1.236;2024-03-23T18:38:59;9.60;90.50
44277;DHT22;29973;43.742;1.236;2024-03-23T18:41:27;10.10;90.50
44277;DHT22;29973;43.742;1.236;2024-03-23T18:43:54;10.00;91.70
44277;DHT22;29973;43.742;1.236;2024-03-23T18:46:24;9.90;91.70
44277;DHT22;29973;43.742;1.236;2024-03-23T18:48:50;10.00;91.70
44277;DHT22;29973;43.742;1.236;2024-03-23T18:51:16;9.90;93.40
44277;DHT22;29973;43.742;1.236;2024-03-23T18:53:41;9.90;93.00
44277;DHT22;29973;43.742;1.236;2024-03-23T18:56:07;10.00;92.50
44277;DHT22;29973;43.742;1.236;2024-03-23T18:58:33;9.90;92.90
44277;DHT22;29973;43.742;1.236;2024-03-23T19:01:02;9.90;94.00
44277;DHT22;29973;43.742;1.236;2024-03-23T19:03:32;10.00;93.40
44277;DHT22;29973;43.742;1.236;2024-03-23T19:05:59;10.10;91.50
44277;DHT22;29973;43.742;1.236;2024-03-23T19:08:26;10.80;90.30
44277;DHT22;29973;43.742;1.236;2024-03-23T19:10:59;10.80;91.10
44277;DHT22;29973;43.742;1.236;2024-03-23T19:13:26;10.70;89.00
44277;DHT22;29973;43.742;1.236;2024-03-23T19:15:53;10.70;92.10
44277;DHT22;29973;43.742;1.236;2024-03-23T19:18:18;10.30;93.80
44277;DHT22;29973;43.742;1.236;2024-03-23T19:20:58;10.20;94.10
44277;DHT22;29973;43.742;1.236;2024-03-23T19:23:24;10.20;93.10
44277;DHT22;29973;43.742;1.236;2024-03-23T19:26:09;10.30;93.00
44277;DHT22;29973;43.742;1.236;2024-03-23T19:28:34;10.40;91.70
44277;DHT22;29973;43.742;1.236;2024-03-23T19:31:02;10.60;93.00
44277;DHT22;29973;43.742;1.236;2024-03-23T19:33:28;11.00;90.10
44277;DHT22;29973;43.742;1.236;2024-03-23T19:35:55;11.20;90.20
44277;DHT22;29973;43.742;1.236;2024-03-23T19:38:21;11.10;90.30
44277;DHT22;29973;43.742;1.236;2024-03-23T19:41:05;11.00;90.70
44277;DHT22;29973;43.742;1.236;2024-03-23T19:43:33;10.80;93.80
44277;DHT22;29973;43.742;1.236;2024-03-23T19:46:02;10.70;93.60
44277;DHT22;29973;43.742;1.236;2024-03-23T19:48:28;10.70;93.90
44277;DHT22;29973;43.742;1.236;2024-03-23T19:50:58;11.00;91.50
44277;DHT22;29973;43.742;1.236;2024-03-23T19:53:24;11.40;90.10
44277;DHT22;29973;43.742;1.236;2024-03-23T19:55:56;11.30;90.00
44277;DHT22;29973;43.742;1.236;2024-03-23T19:58:23;11.40;89.10
44277;DHT22;29973;43.742;1.236;2024-03-23T20:00:48;11.30;90.30
44277;DHT22;29973;43.742;1.236;2024-03-23T20:03:14;11.20;90.20
44277;DHT22;29973;43.742;1.236;2024-03-23T20:05:40;11.20;90.40
44277;DHT22;29973;43.742;1.236;2024-03-23T20:08:06;11.30;89.70
44277;DHT22;29973;43.742;1.236;2024-03-23T20:10:34;11.50;87.20
44277;DHT22;29973;43.742;1.236;2024-03-23T20:13:00;11.50;86.10
44277;DHT22;29973;43.742;1.236;2024-03-23T20:15:26;11.50;86.10
44277;DHT22;29973;43.742;1.236;2024-03-23T20:17:52;11.60;84.10
44277;DHT22;29973;43.742;1.236;2024-03-23T20:20:17;11.60;83.80
44277;DHT22;29973;43.742;1.236;2024-03-23T20:22:43;11.70;81.70
44277;DHT22;29973;43.742;1.236;2024-03-23T20:25:09;11.70;81.10
44277;DHT22;29973;43.742;1.236;2024-03-23T20:27:35;11.70;79.70
44277;DHT22;29973;43.742;1.236;2024-03-23T20:30:01;11.60;79.20
44277;DHT22;29973;43.742;1.236;2024-03-23T20:32:27;11.50;79.70
44277;DHT22;29973;43.742;1.236;2024-03-23T20:34:52;11.50;80.60
44277;DHT22;29973;43.742;1.236;2024-03-23T20:42:46;11.30;81.20
44277;DHT22;29973;43.742;1.236;2024-03-23T20:45:12;11.20;81.90
44277;DHT22;29973;43.742;1.236;2024-03-23T20:47:41;11.10;81.50
44277;DHT22;29973;43.742;1.236;2024-03-23T20:53:04;11.00;82.40
44277;DHT22;29973;43.742;1.236;2024-03-23T20:59:20;10.90;81.70
44277;DHT22;29973;43.742;1.236;2024-03-23T23:11:10;9.40;93.80
